Airport ICAO


21:54 UTC

8°C


An affordable passengers' Moving Map for your aircraft. Made for the iPad and the iPhone
More information here

EGSS Stansted


London UNITED KINGDOM   VFR


METAR EGSS 132150Z AUTO 17007KT 9999 NCD 08/07 Q1025 0h04min

TAF EGSS 131703Z 1318/1424 22010KT 9999 FEW040 BECMG 1421/1424 8000 BKN008 PROB30 1423/1424 3000 BR BKN002 4h51min





NOTAMS

OPEN